Time;durP1;ratioP1;P1;durP2;ratioP2;P2;SDS_P1;SDS_P2;PMS_P1;PMS_P2;Temp;Humidity;BMP_temperature;BMP_pressure;BME280_temperature;BME280_humidity;BME280_pressure;Samples;Min_cycle;Max_cycle;Signal;HPM_P1;HPM_P2
2022/08/01 00:02:16;;;;;;;2.25;1.92;;;;;;;;;;5005045;28;20230;-41
2022/08/01 00:04:43;;;;;;;2.40;1.98;;;;;;;;;;5006817;28;20286;-37
2022/08/01 00:07:10;;;;;;;2.60;2.03;;;;;;;;;;5002745;28;20223;-33
2022/08/01 00:09:37;;;;;;;2.00;1.80;;;;;;;;;;5018845;28;20210;-36
2022/08/01 00:12:05;;;;;;;2.00;1.90;;;;;;;;;;5028996;28;20209;-38
2022/08/01 00:14:34;;;;;;;2.22;2.03;;;;;;;;;;5004073;28;20203;-40
2022/08/01 00:17:01;;;;;;;3.33;2.17;;;;;;;;;;5002660;28;20223;-38
2022/08/01 00:19:28;;;;;;;3.53;2.25;;;;;;;;;;5014847;28;20208;-41
2022/08/01 00:21:55;;;;;;;2.17;1.98;;;;;;;;;;4999846;28;20265;-39
2022/08/01 00:24:22;;;;;;;4.70;2.00;;;;;;;;;;5004130;28;20203;-35
2022/08/01 00:26:49;;;;;;;2.42;2.22;;;;;;;;;;5026880;28;20237;-38
2022/08/01 00:29:16;;;;;;;2.30;2.10;;;;;;;;;;5019731;28;20210;-39
2022/08/01 00:31:45;;;;;;;1.90;1.75;;;;;;;;;;5011866;28;20205;-39
2022/08/01 00:34:12;;;;;;;4.82;1.88;;;;;;;;;;5014405;28;20218;-38
2022/08/01 00:39:15;;;;;;;4.60;2.30;;;;;;;;;;5351486;22;20225;-33
2022/08/01 00:41:43;;;;;;;2.30;2.10;;;;;;;;;;5049234;28;20221;-35
2022/08/01 00:44:10;;;;;;;2.20;1.90;;;;;;;;;;5052466;28;20213;-33
2022/08/01 00:46:37;;;;;;;2.03;1.83;;;;;;;;;;5047826;28;20355;-35
2022/08/01 00:49:06;;;;;;;2.83;1.93;;;;;;;;;;5051363;28;20202;-31
2022/08/01 00:51:34;;;;;;;2.10;1.90;;;;;;;;;;5039701;28;20274;-33
2022/08/01 00:54:02;;;;;;;2.20;2.10;;;;;;;;;;5041595;28;20424;-36
2022/08/01 00:56:29;;;;;;;1.75;1.65;;;;;;;;;;5051114;28;20248;-31
2022/08/01 00:58:57;;;;;;;2.33;2.00;;;;;;;;;;5050467;28;20233;-31
2022/08/01 01:01:24;;;;;;;1.92;1.83;;;;;;;;;;5036590;28;20218;-32
2022/08/01 01:03:52;;;;;;;2.08;1.80;;;;;;;;;;5053141;28;20204;-32
2022/08/01 01:06:25;;;;;;;1.70;1.60;;;;;;;;;;5035854;28;20203;-32
2022/08/01 01:09:00;;;;;;;1.77;1.67;;;;;;;;;;5045205;28;20201;-33
2022/08/01 01:11:29;;;;;;;1.58;1.48;;;;;;;;;;5050480;28;20201;-34
2022/08/01 01:14:01;;;;;;;1.83;1.73;;;;;;;;;;5049735;28;20286;-36
2022/08/01 01:16:28;;;;;;;2.65;1.60;;;;;;;;;;5041939;28;20225;-35
2022/08/01 01:18:57;;;;;;;2.10;1.80;;;;;;;;;;5048507;28;20208;-33
2022/08/01 01:21:39;;;;;;;2.70;1.70;;;;;;;;;;5041641;28;20246;-32
2022/08/01 01:24:14;;;;;;;2.20;1.97;;;;;;;;;;5040728;28;20198;-34
2022/08/01 01:26:45;;;;;;;2.37;2.17;;;;;;;;;;5048766;28;20405;-32
2022/08/01 01:29:17;;;;;;;2.17;1.97;;;;;;;;;;5038777;28;20201;-33
2022/08/01 01:31:47;;;;;;;1.93;1.80;;;;;;;;;;5044813;28;20194;-30
2022/08/01 01:34:16;;;;;;;2.47;2.00;;;;;;;;;;5049430;28;20204;-34
2022/08/01 01:36:45;;;;;;;3.13;1.80;;;;;;;;;;5038589;28;20242;-33
2022/08/01 01:39:14;;;;;;;1.60;1.50;;;;;;;;;;5041510;28;20222;-34
2022/08/01 01:41:41;;;;;;;1.80;1.70;;;;;;;;;;5049208;28;20221;-31
2022/08/01 01:44:09;;;;;;;2.80;2.07;;;;;;;;;;5039725;28;20210;-32
2022/08/01 01:46:38;;;;;;;2.00;1.80;;;;;;;;;;5038074;28;20225;-35
2022/08/01 01:49:06;;;;;;;1.93;1.73;;;;;;;;;;5043303;28;20209;-33
2022/08/01 01:51:34;;;;;;;2.37;1.80;;;;;;;;;;5035824;28;20205;-37
2022/08/01 01:54:02;;;;;;;2.17;1.47;;;;;;;;;;5046998;28;20206;-34
2022/08/01 01:56:31;;;;;;;1.70;1.60;;;;;;;;;;5049901;28;20226;-34
2022/08/01 01:59:00;;;;;;;3.87;1.90;;;;;;;;;;5043232;28;20206;-35
2022/08/01 02:01:29;;;;;;;1.70;1.60;;;;;;;;;;5045717;28;20226;-34
2022/08/01 02:03:58;;;;;;;1.50;1.40;;;;;;;;;;5047692;28;20214;-33
2022/08/01 02:06:27;;;;;;;1.53;1.43;;;;;;;;;;5038713;28;20205;-35
2022/08/01 02:08:56;;;;;;;4.77;1.60;;;;;;;;;;5049085;28;20240;-33
2022/08/01 02:11:23;;;;;;;2.70;1.70;;;;;;;;;;5049223;28;20206;-30
2022/08/01 02:13:54;;;;;;;2.30;1.50;;;;;;;;;;5041372;28;20205;-30
2022/08/01 02:16:24;;;;;;;1.90;1.80;;;;;;;;;;5045822;28;20202;-30
2022/08/01 02:18:51;;;;;;;1.70;1.60;;;;;;;;;;5048646;28;20206;-31
2022/08/01 02:21:25;;;;;;;1.60;1.50;;;;;;;;;;5044429;28;20229;-32
2022/08/01 02:23:53;;;;;;;1.60;1.50;;;;;;;;;;5049342;28;20205;-31
2022/08/01 02:26:21;;;;;;;1.53;1.43;;;;;;;;;;5049926;28;20194;-33
2022/08/01 02:28:50;;;;;;;1.70;1.60;;;;;;;;;;5049850;28;20205;-35
2022/08/01 02:31:20;;;;;;;3.40;1.70;;;;;;;;;;5046718;28;20215;-33
2022/08/01 02:33:49;;;;;;;1.63;1.50;;;;;;;;;;5048066;28;20501;-34
2022/08/01 02:36:18;;;;;;;1.60;1.50;;;;;;;;;;5046598;28;20205;-31
2022/08/01 02:38:47;;;;;;;2.20;1.80;;;;;;;;;;5052933;28;20213;-34
2022/08/01 02:41:16;;;;;;;2.33;1.60;;;;;;;;;;5053739;28;20216;-35
2022/08/01 02:43:44;;;;;;;1.77;1.67;;;;;;;;;;5053293;28;20205;-31
2022/08/01 02:46:13;;;;;;;1.60;1.50;;;;;;;;;;5048593;28;20675;-32
2022/08/01 02:48:42;;;;;;;2.43;2.00;;;;;;;;;;5054109;28;20549;-33
2022/08/01 02:51:11;;;;;;;2.37;1.70;;;;;;;;;;5051042;28;20206;-34
2022/08/01 02:53:40;;;;;;;2.00;1.70;;;;;;;;;;5054483;28;20198;-32
2022/08/01 02:56:09;;;;;;;1.73;1.63;;;;;;;;;;5052049;28;20686;-33
2022/08/01 02:58:37;;;;;;;2.70;1.77;;;;;;;;;;5046605;28;20211;-31
2022/08/01 03:01:04;;;;;;;2.00;1.50;;;;;;;;;;5042979;28;20221;-33
2022/08/01 03:03:32;;;;;;;1.47;1.40;;;;;;;;;;5051294;28;20228;-32
2022/08/01 03:05:59;;;;;;;2.93;2.00;;;;;;;;;;5041771;28;20209;-33
2022/08/01 03:08:27;;;;;;;2.77;1.63;;;;;;;;;;5044372;28;20229;-33
2022/08/01 03:10:55;;;;;;;2.37;1.73;;;;;;;;;;5052100;28;20205;-34
2022/08/01 03:13:23;;;;;;;1.93;1.80;;;;;;;;;;5048317;28;20194;-35
2022/08/01 03:15:51;;;;;;;2.40;1.87;;;;;;;;;;5039520;28;20345;-34
2022/08/01 03:18:18;;;;;;;1.90;1.80;;;;;;;;;;5051347;28;20218;-33
2022/08/01 03:20:47;;;;;;;1.70;1.60;;;;;;;;;;5043210;28;20299;-31
2022/08/01 03:23:15;;;;;;;2.30;2.10;;;;;;;;;;5035894;28;20217;-32
2022/08/01 03:25:43;;;;;;;1.47;1.37;;;;;;;;;;5051349;28;20197;-33
2022/08/01 03:28:13;;;;;;;2.10;1.87;;;;;;;;;;5051921;28;20236;-30
2022/08/01 03:30:42;;;;;;;1.70;1.60;;;;;;;;;;5042823;28;20569;-29
2022/08/01 03:33:10;;;;;;;2.07;1.97;;;;;;;;;;5050738;28;20208;-35
2022/08/01 03:35:39;;;;;;;2.30;1.70;;;;;;;;;;5046316;28;20209;-34
2022/08/01 03:38:07;;;;;;;1.93;1.83;;;;;;;;;;5035942;28;20239;-34
2022/08/01 03:40:37;;;;;;;3.10;1.90;;;;;;;;;;5051680;28;20208;-35
2022/08/01 03:43:06;;;;;;;2.67;2.07;;;;;;;;;;5051189;28;20217;-34
2022/08/01 03:45:37;;;;;;;4.33;1.80;;;;;;;;;;5046965;28;20333;-31
2022/08/01 03:48:07;;;;;;;2.03;1.83;;;;;;;;;;5044998;28;20260;-34
2022/08/01 03:50:35;;;;;;;2.43;1.77;;;;;;;;;;5044541;28;20202;-31
2022/08/01 03:53:04;;;;;;;2.43;1.80;;;;;;;;;;5043711;28;20205;-33
2022/08/01 03:55:32;;;;;;;3.87;2.20;;;;;;;;;;5050966;28;20205;-32
2022/08/01 03:57:59;;;;;;;1.90;1.80;;;;;;;;;;5049800;28;20225;-32
2022/08/01 04:00:28;;;;;;;1.97;1.73;;;;;;;;;;5044476;28;20224;-32
2022/08/01 04:02:55;;;;;;;2.10;1.70;;;;;;;;;;5047343;28;20224;-36
2022/08/01 04:05:25;;;;;;;2.77;1.80;;;;;;;;;;5045257;28;20205;-30
2022/08/01 04:07:55;;;;;;;1.87;1.77;;;;;;;;;;5046420;28;20225;-33
2022/08/01 04:10:23;;;;;;;2.73;2.00;;;;;;;;;;5051854;28;20197;-30
2022/08/01 04:12:50;;;;;;;1.90;1.80;;;;;;;;;;5053243;28;20265;-34
2022/08/01 04:15:17;;;;;;;2.03;1.93;;;;;;;;;;5044494;28;20209;-32
2022/08/01 04:17:44;;;;;;;2.67;2.20;;;;;;;;;;5048317;28;20221;-32
2022/08/01 04:20:12;;;;;;;3.70;1.97;;;;;;;;;;5046132;28;20205;-32
2022/08/01 04:22:41;;;;;;;3.33;2.33;;;;;;;;;;5043760;28;20222;-31
2022/08/01 04:25:11;;;;;;;2.50;2.30;;;;;;;;;;5050926;28;20204;-33
2022/08/01 04:27:40;;;;;;;2.73;1.80;;;;;;;;;;5053097;28;20221;-30
2022/08/01 04:30:25;;;;;;;2.70;1.93;;;;;;;;;;5039937;28;20225;-30
2022/08/01 04:32:54;;;;;;;4.73;1.93;;;;;;;;;;5048423;28;20208;-30
2022/08/01 04:35:22;;;;;;;1.77;1.67;;;;;;;;;;5042866;28;20297;-32
2022/08/01 04:37:51;;;;;;;2.00;1.90;;;;;;;;;;5037255;28;20313;-35
2022/08/01 04:40:21;;;;;;;4.73;2.50;;;;;;;;;;5043153;28;20196;-35
2022/08/01 04:42:50;;;;;;;3.07;1.83;;;;;;;;;;5052030;28;20225;-30
2022/08/01 04:45:18;;;;;;;1.83;1.63;;;;;;;;;;5049355;28;20271;-33
2022/08/01 04:47:45;;;;;;;3.33;1.90;;;;;;;;;;5049575;28;20264;-30
2022/08/01 04:50:16;;;;;;;2.40;1.77;;;;;;;;;;5047582;28;20204;-30
2022/08/01 04:52:43;;;;;;;1.70;1.60;;;;;;;;;;5035174;28;20217;-30
2022/08/01 04:55:12;;;;;;;1.57;1.47;;;;;;;;;;5050244;28;20616;-35
2022/08/01 04:57:41;;;;;;;1.60;1.50;;;;;;;;;;5052861;28;20235;-32
2022/08/01 05:00:08;;;;;;;2.37;2.17;;;;;;;;;;5041091;28;20207;-33
2022/08/01 05:02:36;;;;;;;2.23;2.07;;;;;;;;;;5050748;28;20216;-34
2022/08/01 05:05:03;;;;;;;2.00;1.90;;;;;;;;;;5046535;28;20210;-30
2022/08/01 05:07:30;;;;;;;3.23;2.30;;;;;;;;;;5041697;28;20424;-31
2022/08/01 05:09:57;;;;;;;3.03;2.00;;;;;;;;;;5042482;28;20660;-35
2022/08/01 05:12:25;;;;;;;1.97;1.87;;;;;;;;;;5050773;28;20205;-33
2022/08/01 05:14:53;;;;;;;4.00;1.87;;;;;;;;;;5051054;28;20689;-33
2022/08/01 05:17:20;;;;;;;2.03;1.93;;;;;;;;;;5035981;28;20221;-31
2022/08/01 05:19:47;;;;;;;2.33;2.20;;;;;;;;;;5038866;28;20278;-32
2022/08/01 05:22:14;;;;;;;2.20;2.00;;;;;;;;;;5037543;28;20236;-35
2022/08/01 05:24:42;;;;;;;2.17;2.03;;;;;;;;;;5049995;28;20198;-30
2022/08/01 05:27:09;;;;;;;2.83;2.47;;;;;;;;;;5051503;28;20218;-33
2022/08/01 05:29:38;;;;;;;3.50;2.23;;;;;;;;;;5046251;28;20206;-34
2022/08/01 05:32:05;;;;;;;5.43;2.47;;;;;;;;;;5042714;28;20205;-29
2022/08/01 05:34:32;;;;;;;2.60;2.07;;;;;;;;;;5051469;28;20202;-34
2022/08/01 05:36:59;;;;;;;2.20;2.00;;;;;;;;;;5046341;28;20225;-29
2022/08/01 05:39:26;;;;;;;1.93;1.73;;;;;;;;;;5044110;28;20224;-32
2022/08/01 05:41:53;;;;;;;3.93;2.40;;;;;;;;;;5051676;28;20209;-32
2022/08/01 05:44:20;;;;;;;2.20;2.00;;;;;;;;;;5047362;28;20225;-32
2022/08/01 05:46:49;;;;;;;2.60;2.23;;;;;;;;;;5046106;28;20216;-33
2022/08/01 05:49:16;;;;;;;2.60;2.40;;;;;;;;;;5049560;28;20213;-33
2022/08/01 05:51:43;;;;;;;3.43;2.07;;;;;;;;;;5037411;28;20213;-30
2022/08/01 05:54:13;;;;;;;2.40;2.20;;;;;;;;;;5043121;28;20206;-33
2022/08/01 05:56:40;;;;;;;2.67;2.33;;;;;;;;;;5052316;28;20221;-31
2022/08/01 05:59:07;;;;;;;2.77;2.53;;;;;;;;;;5046233;28;20210;-31
2022/08/01 06:01:35;;;;;;;3.20;2.90;;;;;;;;;;5045402;28;20212;-34
2022/08/01 06:04:03;;;;;;;5.20;2.63;;;;;;;;;;5049153;28;20240;-30
2022/08/01 06:06:30;;;;;;;2.60;2.37;;;;;;;;;;5047168;28;20230;-31
2022/08/01 06:08:57;;;;;;;3.27;2.53;;;;;;;;;;5052267;28;20567;-32
2022/08/01 06:11:25;;;;;;;2.63;2.33;;;;;;;;;;5055322;28;20197;-31
2022/08/01 06:13:53;;;;;;;4.80;2.20;;;;;;;;;;5055830;28;20198;-34
2022/08/01 06:16:20;;;;;;;2.83;2.50;;;;;;;;;;5042620;28;20214;-32
2022/08/01 06:18:47;;;;;;;2.75;2.55;;;;;;;;;;5043663;28;20210;-31
2022/08/01 06:21:16;;;;;;;3.88;2.22;;;;;;;;;;5044560;28;20273;-32
2022/08/01 06:23:43;;;;;;;3.03;2.40;;;;;;;;;;5042889;28;20316;-34
2022/08/01 06:26:10;;;;;;;4.07;2.30;;;;;;;;;;5055439;28;20201;-33
2022/08/01 06:28:38;;;;;;;4.73;2.53;;;;;;;;;;5052654;28;20201;-33
2022/08/01 06:31:05;;;;;;;2.35;2.15;;;;;;;;;;5052851;28;20202;-35
2022/08/01 06:33:32;;;;;;;3.00;2.53;;;;;;;;;;5054115;28;20205;-29
2022/08/01 06:35:59;;;;;;;2.50;2.30;;;;;;;;;;5046370;28;20202;-31
2022/08/01 06:40:57;;;;;;;2.08;1.98;;;;;;;;;;5023335;28;20225;-38
2022/08/01 06:43:24;;;;;;;2.22;2.05;;;;;;;;;;5013649;28;20289;-36
2022/08/01 06:45:51;;;;;;;2.67;2.47;;;;;;;;;;5018152;28;20334;-33
2022/08/01 06:48:18;;;;;;;3.35;2.10;;;;;;;;;;5029259;28;20222;-40
2022/08/01 06:50:45;;;;;;;3.13;2.17;;;;;;;;;;5028068;28;20201;-39
2022/08/01 06:53:12;;;;;;;2.20;2.00;;;;;;;;;;5016744;28;20213;-39
2022/08/01 06:55:39;;;;;;;3.17;2.25;;;;;;;;;;5015547;28;20202;-35
2022/08/01 06:58:08;;;;;;;3.40;1.70;;;;;;;;;;5014603;28;20229;-36
2022/08/01 07:00:35;;;;;;;2.00;1.80;;;;;;;;;;5016452;28;20235;-39
2022/08/01 07:03:02;;;;;;;4.68;2.20;;;;;;;;;;5023136;28;20235;-39
2022/08/01 07:05:30;;;;;;;3.38;1.92;;;;;;;;;;5026258;28;20209;-38
2022/08/01 07:07:58;;;;;;;4.60;1.73;;;;;;;;;;5014796;28;20227;-39
2022/08/01 07:10:25;;;;;;;2.00;1.83;;;;;;;;;;5027669;28;20233;-39
2022/08/01 07:12:52;;;;;;;2.20;1.60;;;;;;;;;;5012772;28;20210;-37
2022/08/01 07:15:26;;;;;;;4.80;4.20;;;;;;;;;;5020098;28;20206;-40
2022/08/01 07:17:53;;;;;;;1.73;1.63;;;;;;;;;;5019217;28;20226;-43
2022/08/01 07:20:20;;;;;;;1.88;1.65;;;;;;;;;;5026736;28;20218;-40
2022/08/01 07:22:48;;;;;;;1.70;1.60;;;;;;;;;;5012621;28;20204;-38
2022/08/01 07:25:15;;;;;;;2.67;1.80;;;;;;;;;;5031153;28;20285;-38
2022/08/01 07:27:42;;;;;;;2.13;1.60;;;;;;;;;;5029593;28;20238;-39
2022/08/01 07:30:10;;;;;;;1.35;1.30;;;;;;;;;;5022486;28;20207;-41
2022/08/01 07:32:38;;;;;;;3.03;1.73;;;;;;;;;;5023430;28;20198;-40
2022/08/01 07:35:06;;;;;;;7.63;1.70;;;;;;;;;;5027799;28;20214;-39
2022/08/01 07:37:33;;;;;;;3.35;1.85;;;;;;;;;;5023092;28;20223;-44
2022/08/01 07:40:00;;;;;;;1.60;1.50;;;;;;;;;;5021833;28;20210;-39
2022/08/01 07:42:27;;;;;;;1.67;1.58;;;;;;;;;;5012145;28;20221;-37
2022/08/01 07:44:54;;;;;;;1.15;1.15;;;;;;;;;;5010916;28;20227;-44
2022/08/01 07:47:25;;;;;;;2.85;1.63;;;;;;;;;;5020572;28;20333;-37
2022/08/01 07:49:53;;;;;;;4.85;2.03;;;;;;;;;;5023179;28;20203;-38
2022/08/01 07:52:20;;;;;;;2.20;1.58;;;;;;;;;;5022651;28;20234;-40
2022/08/01 07:54:48;;;;;;;1.77;1.67;;;;;;;;;;5031272;28;20210;-37
2022/08/01 07:57:15;;;;;;;2.20;1.73;;;;;;;;;;5031460;28;20230;-36
2022/08/01 07:59:42;;;;;;;2.17;1.70;;;;;;;;;;5027239;28;20203;-39
2022/08/01 08:02:09;;;;;;;2.55;1.63;;;;;;;;;;5025333;28;20253;-41
2022/08/01 08:04:36;;;;;;;1.45;1.35;;;;;;;;;;5029652;28;20226;-38
2022/08/01 08:07:05;;;;;;;1.05;1.05;;;;;;;;;;5016382;28;20233;-41
2022/08/01 08:09:32;;;;;;;1.60;1.33;;;;;;;;;;5035014;28;20205;-36
2022/08/01 08:11:59;;;;;;;2.05;1.88;;;;;;;;;;5013918;28;20207;-40
2022/08/01 08:14:26;;;;;;;2.65;1.58;;;;;;;;;;5011220;28;20207;-39
2022/08/01 08:16:53;;;;;;;1.52;1.27;;;;;;;;;;5018616;28;20531;-42
2022/08/01 08:19:20;;;;;;;1.48;1.42;;;;;;;;;;5019480;28;20206;-35
2022/08/01 08:21:48;;;;;;;1.42;1.33;;;;;;;;;;5020102;28;20207;-40
2022/08/01 08:24:23;;;;;;;1.58;1.48;;;;;;;;;;5017004;28;20322;-36
2022/08/01 08:26:52;;;;;;;1.70;1.60;;;;;;;;;;5011440;28;20227;-40
2022/08/01 08:29:20;;;;;;;1.52;1.25;;;;;;;;;;5009656;28;20410;-42
2022/08/01 08:31:47;;;;;;;1.65;1.50;;;;;;;;;;5016164;28;20325;-42
2022/08/01 08:34:14;;;;;;;2.72;1.85;;;;;;;;;;5029236;28;20202;-40
2022/08/01 08:36:41;;;;;;;4.05;1.60;;;;;;;;;;5020356;28;20223;-36
2022/08/01 08:39:08;;;;;;;1.65;1.55;;;;;;;;;;5013682;28;20215;-38
2022/08/01 08:41:37;;;;;;;3.58;2.20;;;;;;;;;;5016466;28;20199;-43
2022/08/01 08:44:05;;;;;;;1.67;1.48;;;;;;;;;;5008884;28;20222;-42
2022/08/01 08:46:33;;;;;;;1.65;1.48;;;;;;;;;;5023320;28;20226;-36
2022/08/01 08:49:01;;;;;;;2.03;1.92;;;;;;;;;;5022770;28;20217;-39
2022/08/01 08:51:31;;;;;;;1.65;1.55;;;;;;;;;;5023626;28;20229;-41
2022/08/01 08:53:59;;;;;;;1.55;1.42;;;;;;;;;;5021395;28;20206;-42
2022/08/01 08:56:29;;;;;;;5.25;1.90;;;;;;;;;;5013129;28;20194;-43
2022/08/01 08:58:58;;;;;;;5.78;2.20;;;;;;;;;;5022055;28;20217;-44
2022/08/01 09:01:25;;;;;;;3.15;1.70;;;;;;;;;;5015315;28;20704;-38
2022/08/01 09:03:52;;;;;;;2.13;1.52;;;;;;;;;;5010839;28;20223;-35
2022/08/01 09:06:19;;;;;;;2.65;1.90;;;;;;;;;;5017138;28;20218;-39
2022/08/01 09:08:47;;;;;;;1.48;1.45;;;;;;;;;;5025178;28;20198;-37
2022/08/01 09:11:14;;;;;;;2.45;1.60;;;;;;;;;;5021314;28;20209;-35
2022/08/01 09:13:41;;;;;;;1.40;1.30;;;;;;;;;;5020767;28;20210;-41
2022/08/01 09:16:11;;;;;;;1.83;1.73;;;;;;;;;;5019274;28;20214;-41
2022/08/01 09:18:40;;;;;;;1.70;1.60;;;;;;;;;;5015703;28;20258;-39
2022/08/01 09:21:11;;;;;;;1.83;1.70;;;;;;;;;;5019261;28;20698;-37
2022/08/01 09:23:42;;;;;;;2.35;1.80;;;;;;;;;;5020062;28;20230;-36
2022/08/01 09:26:09;;;;;;;1.83;1.70;;;;;;;;;;5029671;28;20210;-41
2022/08/01 09:28:37;;;;;;;3.28;1.77;;;;;;;;;;5029888;28;20202;-36
2022/08/01 09:31:07;;;;;;;4.90;2.13;;;;;;;;;;5012989;28;20207;-40
2022/08/01 09:33:49;;;;;;;1.98;1.75;;;;;;;;;;5018540;28;20391;-41
2022/08/01 09:36:17;;;;;;;3.42;2.13;;;;;;;;;;5021331;28;20203;-37
2022/08/01 09:38:44;;;;;;;3.80;2.00;;;;;;;;;;5020956;28;20206;-36
2022/08/01 09:41:12;;;;;;;1.90;1.80;;;;;;;;;;5014238;28;20225;-38
2022/08/01 09:43:39;;;;;;;2.28;1.77;;;;;;;;;;5023829;28;20273;-35
2022/08/01 09:46:11;;;;;;;2.47;2.13;;;;;;;;;;5026050;28;20280;-38
2022/08/01 09:48:39;;;;;;;2.38;1.60;;;;;;;;;;5023769;28;20226;-38
2022/08/01 09:51:08;;;;;;;2.47;2.05;;;;;;;;;;5028058;28;20214;-39
2022/08/01 09:53:42;;;;;;;2.20;1.73;;;;;;;;;;5036382;28;20266;-35
2022/08/01 09:56:10;;;;;;;1.70;1.60;;;;;;;;;;5029145;28;20201;-38
2022/08/01 09:58:50;;;;;;;2.67;2.33;;;;;;;;;;5027802;28;20265;-39
2022/08/01 10:01:17;;;;;;;2.60;2.40;;;;;;;;;;5019751;28;20269;-35
2022/08/01 10:03:44;;;;;;;2.28;2.08;;;;;;;;;;5015664;28;20219;-36
2022/08/01 10:06:23;;;;;;;2.72;2.53;;;;;;;;;;5026544;28;20207;-38
2022/08/01 10:08:50;;;;;;;2.58;2.28;;;;;;;;;;5026536;28;20237;-35
2022/08/01 10:11:17;;;;;;;2.50;2.30;;;;;;;;;;5034022;28;20199;-41
2022/08/01 10:13:44;;;;;;;2.45;2.20;;;;;;;;;;5030544;28;20209;-40
2022/08/01 10:16:14;;;;;;;2.45;2.25;;;;;;;;;;5012071;28;20212;-37
2022/08/01 10:18:42;;;;;;;3.17;2.53;;;;;;;;;;5009144;28;20209;-39
2022/08/01 10:21:10;;;;;;;3.70;2.45;;;;;;;;;;5018971;28;20214;-37
2022/08/01 10:23:38;;;;;;;3.40;2.63;;;;;;;;;;5023952;28;20214;-38
2022/08/01 10:26:07;;;;;;;2.75;2.40;;;;;;;;;;5026743;28;20206;-38
2022/08/01 10:28:36;;;;;;;3.05;2.70;;;;;;;;;;5030108;28;20211;-36
2022/08/01 10:31:03;;;;;;;3.40;3.10;;;;;;;;;;5025621;28;20211;-35
2022/08/01 10:33:30;;;;;;;2.90;2.70;;;;;;;;;;5019591;28;20216;-38
2022/08/01 10:35:58;;;;;;;3.15;2.63;;;;;;;;;;5023934;28;20206;-39
2022/08/01 10:38:26;;;;;;;4.72;3.28;;;;;;;;;;5025309;28;20222;-37
2022/08/01 10:40:55;;;;;;;2.90;2.60;;;;;;;;;;5028361;28;20214;-40
2022/08/01 10:43:22;;;;;;;4.18;2.85;;;;;;;;;;5029828;28;20229;-37
2022/08/01 10:45:49;;;;;;;3.78;3.05;;;;;;;;;;5021014;28;20233;-42
2022/08/01 10:48:20;;;;;;;5.30;3.13;;;;;;;;;;5027717;28;20225;-38
2022/08/01 10:50:48;;;;;;;3.33;3.00;;;;;;;;;;5025652;28;20211;-37
2022/08/01 10:53:17;;;;;;;3.55;3.25;;;;;;;;;;5029437;28;20216;-38
2022/08/01 10:55:49;;;;;;;3.50;3.20;;;;;;;;;;5025711;28;20257;-39
2022/08/01 10:58:22;;;;;;;3.25;2.95;;;;;;;;;;5032580;28;20235;-38
2022/08/01 11:01:06;;;;;;;3.50;3.20;;;;;;;;;;5028219;28;20301;-39
2022/08/01 11:03:36;;;;;;;4.85;3.25;;;;;;;;;;5028284;28;20412;-40
2022/08/01 11:06:05;;;;;;;3.78;3.47;;;;;;;;;;5022972;28;20223;-37
2022/08/01 11:08:32;;;;;;;4.95;3.47;;;;;;;;;;5019409;28;20256;-40
2022/08/01 11:11:02;;;;;;;3.40;3.10;;;;;;;;;;5023916;28;20213;-42
2022/08/01 11:13:50;;;;;;;4.07;3.33;;;;;;;;;;5032503;28;20232;-34
2022/08/01 11:16:28;;;;;;;3.10;2.90;;;;;;;;;;5026236;28;20206;-39
2022/08/01 11:18:56;;;;;;;3.85;3.40;;;;;;;;;;5031839;28;20204;-36
2022/08/01 11:21:26;;;;;;;3.38;3.10;;;;;;;;;;5022920;28;20235;-33
2022/08/01 11:23:53;;;;;;;3.70;3.40;;;;;;;;;;5019958;28;20209;-37
2022/08/01 11:26:20;;;;;;;3.65;3.10;;;;;;;;;;5032596;28;20201;-36
2022/08/01 11:29:08;;;;;;;3.83;3.38;;;;;;;;;;5032069;28;20220;-40
2022/08/01 11:31:36;;;;;;;2.92;2.63;;;;;;;;;;5022314;28;20214;-41
2022/08/01 11:34:04;;;;;;;4.75;3.40;;;;;;;;;;5024049;28;20206;-39
2022/08/01 11:36:31;;;;;;;3.30;3.10;;;;;;;;;;5024956;28;20233;-41
2022/08/01 11:39:17;;;;;;;5.47;2.70;;;;;;;;;;5014476;28;20218;-38
2022/08/01 11:41:45;;;;;;;3.08;2.88;;;;;;;;;;5027274;28;20204;-34
2022/08/01 11:44:14;;;;;;;3.35;2.60;;;;;;;;;;5032224;28;20213;-38
2022/08/01 11:46:56;;;;;;;3.63;2.70;;;;;;;;;;5023798;28;20226;-38
2022/08/01 11:49:25;;;;;;;2.83;2.53;;;;;;;;;;5020092;28;20388;-39
2022/08/01 11:51:58;;;;;;;2.45;2.20;;;;;;;;;;5010564;28;20234;-39
2022/08/01 11:54:26;;;;;;;2.97;2.67;;;;;;;;;;5028783;28;20195;-39
2022/08/01 11:56:56;;;;;;;3.33;2.58;;;;;;;;;;5032668;28;20321;-39
2022/08/01 11:59:23;;;;;;;2.47;2.28;;;;;;;;;;5033201;28;20215;-36
2022/08/01 12:01:50;;;;;;;2.35;2.15;;;;;;;;;;5017680;28;20210;-38
2022/08/01 12:04:19;;;;;;;4.10;2.35;;;;;;;;;;5019707;28;20199;-36
2022/08/01 12:06:47;;;;;;;3.72;2.15;;;;;;;;;;5015256;28;20236;-37
2022/08/01 12:09:18;;;;;;;2.58;2.10;;;;;;;;;;5029442;28;20208;-36
2022/08/01 12:11:46;;;;;;;2.47;2.28;;;;;;;;;;5025242;28;20233;-40
2022/08/01 12:14:17;;;;;;;1.98;1.88;;;;;;;;;;5027845;28;20751;-42
2022/08/01 12:16:49;;;;;;;2.28;2.10;;;;;;;;;;5011681;28;20230;-39
2022/08/01 12:19:20;;;;;;;2.45;1.80;;;;;;;;;;5030696;28;20201;-41
2022/08/01 12:22:06;;;;;;;2.20;2.00;;;;;;;;;;5015650;28;20569;-36
2022/08/01 12:24:33;;;;;;;2.28;2.08;;;;;;;;;;5018898;28;20222;-38
2022/08/01 12:27:00;;;;;;;2.20;2.00;;;;;;;;;;5028507;28;20229;-35
2022/08/01 12:29:37;;;;;;;2.10;2.00;;;;;;;;;;5030270;28;20203;-36
2022/08/01 12:32:05;;;;;;;2.58;2.38;;;;;;;;;;5018282;28;20209;-36
2022/08/01 12:34:35;;;;;;;3.42;2.10;;;;;;;;;;5010906;28;20232;-40
2022/08/01 12:37:03;;;;;;;2.25;2.15;;;;;;;;;;5017761;28;20226;-42
2022/08/01 12:39:34;;;;;;;3.35;2.30;;;;;;;;;;5303660;22;20232;-38
2022/08/01 12:42:01;;;;;;;2.30;2.08;;;;;;;;;;5031412;28;20209;-36
2022/08/01 12:44:29;;;;;;;2.17;1.90;;;;;;;;;;5027384;28;20206;-33
2022/08/01 12:46:57;;;;;;;1.90;1.80;;;;;;;;;;5029261;28;20252;-31
2022/08/01 12:49:24;;;;;;;1.90;1.80;;;;;;;;;;5025679;28;20264;-33
2022/08/01 12:51:53;;;;;;;2.55;2.35;;;;;;;;;;5026236;28;20213;-35
2022/08/01 12:54:22;;;;;;;2.47;2.25;;;;;;;;;;5012454;28;20211;-35
2022/08/01 12:56:49;;;;;;;2.95;2.15;;;;;;;;;;5012617;28;20229;-33
2022/08/01 12:59:24;;;;;;;3.13;2.00;;;;;;;;;;5028483;28;20237;-37
2022/08/01 13:01:52;;;;;;;2.22;1.90;;;;;;;;;;5027051;28;20209;-34
2022/08/01 13:04:20;;;;;;;2.85;2.30;;;;;;;;;;5020802;28;20213;-35
2022/08/01 13:06:47;;;;;;;2.30;2.00;;;;;;;;;;5014813;28;20432;-35
2022/08/01 13:09:15;;;;;;;2.28;2.08;;;;;;;;;;5026847;28;20207;-33
2022/08/01 13:11:43;;;;;;;2.08;1.98;;;;;;;;;;5026812;28;20213;-32
2022/08/01 13:14:11;;;;;;;2.92;2.13;;;;;;;;;;5032161;28;20210;-34
2022/08/01 13:16:48;;;;;;;2.00;1.90;;;;;;;;;;5026322;28;20218;-35
2022/08/01 13:19:15;;;;;;;1.80;1.70;;;;;;;;;;5025611;28;20216;-34
2022/08/01 13:21:55;;;;;;;1.90;1.80;;;;;;;;;;5017633;28;20233;-35
2022/08/01 13:24:29;;;;;;;2.20;2.00;;;;;;;;;;5024741;28;20216;-33
2022/08/01 13:26:59;;;;;;;4.55;2.05;;;;;;;;;;5032018;28;20239;-34
2022/08/01 13:29:34;;;;;;;1.95;1.85;;;;;;;;;;5029169;28;20264;-37
2022/08/01 13:32:01;;;;;;;2.30;2.10;;;;;;;;;;5024757;28;20207;-35
2022/08/01 13:34:32;;;;;;;2.10;1.90;;;;;;;;;;5023693;28;20194;-39
2022/08/01 13:37:01;;;;;;;2.40;1.92;;;;;;;;;;5015578;28;20235;-37
2022/08/01 13:39:42;;;;;;;2.13;1.92;;;;;;;;;;5027270;28;20221;-37
2022/08/01 13:42:09;;;;;;;1.95;1.85;;;;;;;;;;5012208;28;20207;-36
2022/08/01 13:44:39;;;;;;;2.15;1.80;;;;;;;;;;5011601;28;20211;-38
2022/08/01 13:47:09;;;;;;;1.50;1.40;;;;;;;;;;5020022;28;20230;-34
2022/08/01 13:49:37;;;;;;;1.55;1.50;;;;;;;;;;5032055;28;20253;-35
2022/08/01 13:52:08;;;;;;;1.63;1.52;;;;;;;;;;5018101;28;20298;-36
2022/08/01 13:54:37;;;;;;;2.88;1.63;;;;;;;;;;5019017;28;20194;-38
2022/08/01 13:57:04;;;;;;;1.92;1.50;;;;;;;;;;5014225;28;20250;-32
2022/08/01 13:59:32;;;;;;;1.80;1.70;;;;;;;;;;5011482;28;20217;-34
2022/08/01 14:02:01;;;;;;;4.10;1.70;;;;;;;;;;5022632;28;20217;-36
2022/08/01 14:04:29;;;;;;;2.17;1.73;;;;;;;;;;5037537;28;20208;-34
2022/08/01 14:06:56;;;;;;;1.70;1.60;;;;;;;;;;5015105;28;20253;-34
2022/08/01 14:09:24;;;;;;;1.70;1.60;;;;;;;;;;5015540;28;20203;-35
2022/08/01 14:11:53;;;;;;;2.50;1.63;;;;;;;;;;5015398;28;20206;-37
2022/08/01 14:14:21;;;;;;;1.88;1.70;;;;;;;;;;5016502;28;20217;-33
2022/08/01 14:16:48;;;;;;;2.40;2.03;;;;;;;;;;5024125;28;20284;-34
2022/08/01 14:19:16;;;;;;;2.38;1.80;;;;;;;;;;5031049;28;20236;-34
2022/08/01 14:21:43;;;;;;;4.50;2.22;;;;;;;;;;5015803;28;20225;-31
2022/08/01 14:24:10;;;;;;;2.83;1.65;;;;;;;;;;5021158;28;20219;-34
2022/08/01 14:26:40;;;;;;;2.00;1.90;;;;;;;;;;5013530;28;20314;-36
2022/08/01 14:29:10;;;;;;;2.80;1.65;;;;;;;;;;5015232;28;20211;-35
2022/08/01 14:31:40;;;;;;;3.25;1.77;;;;;;;;;;5025802;28;20206;-37
2022/08/01 14:34:08;;;;;;;2.90;1.70;;;;;;;;;;5036310;28;20245;-36
2022/08/01 14:36:35;;;;;;;2.10;1.58;;;;;;;;;;5023581;28;20228;-31
2022/08/01 14:39:03;;;;;;;2.38;1.35;;;;;;;;;;5027217;28;20229;-34
2022/08/01 14:41:30;;;;;;;1.60;1.50;;;;;;;;;;5022462;28;20289;-33
2022/08/01 14:43:57;;;;;;;1.67;1.50;;;;;;;;;;5050971;28;20204;-36
2022/08/01 14:46:27;;;;;;;1.30;1.30;;;;;;;;;;5030112;28;20261;-36
2022/08/01 14:48:54;;;;;;;2.50;1.50;;;;;;;;;;5030002;28;20212;-35
2022/08/01 14:51:21;;;;;;;3.88;2.10;;;;;;;;;;5014981;28;20217;-32
2022/08/01 14:53:48;;;;;;;2.13;1.50;;;;;;;;;;5026915;28;20244;-32
2022/08/01 14:56:17;;;;;;;1.77;1.60;;;;;;;;;;5023298;28;20213;-36
2022/08/01 14:58:45;;;;;;;2.00;1.90;;;;;;;;;;5019073;28;20213;-36